Time;durP1;ratioP1;P1;durP2;ratioP2;P2;SDS_P1;SDS_P2;PMS_P1;PMS_P2;Temp;Humidity;BMP_temperature;BMP_pressure;BME280_temperature;BME280_humidity;BME280_pressure;Samples;Min_cycle;Max_cycle;Signal;HPM_P1;HPM_P2
2023/06/21 00:01:11;;;;;;;10.85;7.88;;;23.50;63.00;;;25.36;47.71;97490.88;5080457;28;20052;-40
2023/06/21 00:03:39;;;;;;;10.23;8.75;;;23.40;62.90;;;25.33;47.85;97485.94;5082304;28;20514;-40
2023/06/21 00:06:06;;;;;;;11.02;7.65;;;23.50;63.10;;;25.32;48.08;97478.84;5081307;28;20040;-40
2023/06/21 00:08:34;;;;;;;10.70;8.13;;;23.50;63.40;;;25.31;47.78;97466.28;5078662;28;20123;-40
2023/06/21 00:11:01;;;;;;;10.00;7.53;;;23.50;63.40;;;25.27;48.24;97470.63;5078633;28;20547;-40
2023/06/21 00:13:29;;;;;;;11.38;7.85;;;23.40;63.80;;;25.23;48.38;97478.50;5066027;28;20541;-40
2023/06/21 00:15:57;;;;;;;11.18;8.75;;;23.30;64.00;;;25.21;48.33;97485.25;5082396;28;20066;-40
2023/06/21 00:18:25;;;;;;;13.15;8.85;;;23.30;64.20;;;25.18;48.39;97475.69;5077958;28;20041;-40
2023/06/21 00:20:52;;;;;;;13.30;7.93;;;23.30;64.40;;;25.16;48.54;97477.84;5078709;28;20049;-40
2023/06/21 00:23:20;;;;;;;9.30;8.20;;;23.30;64.30;;;25.16;48.47;97472.41;5054709;28;20055;-40
2023/06/21 00:25:47;;;;;;;12.20;7.63;;;23.40;64.10;;;25.17;48.10;97465.06;5081802;28;20066;-40
2023/06/21 00:28:15;;;;;;;12.68;8.90;;;23.30;63.70;;;25.15;48.25;97470.78;5041584;28;20068;-40
2023/06/21 00:30:43;;;;;;;8.75;7.55;;;23.40;63.80;;;25.12;48.44;97460.38;5078101;28;20041;-40
2023/06/21 00:33:11;;;;;;;11.00;7.28;;;23.30;64.10;;;25.10;48.19;97463.34;5052489;28;20057;-40
2023/06/21 00:35:40;;;;;;;9.88;7.53;;;23.30;64.10;;;25.09;48.42;97471.81;5053754;28;20278;-40
2023/06/21 00:38:07;;;;;;;9.95;8.18;;;23.20;64.30;;;25.05;48.27;97476.97;5070401;28;20057;-40
2023/06/21 00:40:35;;;;;;;9.10;8.00;;;23.20;64.50;;;25.04;48.46;97480.75;5051673;28;20048;-40
2023/06/21 00:43:03;;;;;;;11.95;8.40;;;23.20;64.50;;;24.98;48.86;97478.25;5035440;28;20052;-40
2023/06/21 00:45:39;;;;;;;8.88;7.95;;;23.10;65.10;;;24.96;48.39;97481.22;5047240;28;20521;-40
2023/06/21 00:48:07;;;;;;;10.05;7.50;;;23.10;64.70;;;24.92;48.55;97480.09;5079570;28;20052;-40
2023/06/21 00:50:38;;;;;;;12.55;7.57;;;23.00;64.80;;;24.88;48.37;97484.41;5078343;28;20040;-40
2023/06/21 00:53:07;;;;;;;10.10;7.85;;;23.00;64.90;;;24.83;48.46;97489.81;5051180;28;20049;-40
2023/06/21 00:55:36;;;;;;;10.88;8.43;;;22.90;64.90;;;24.76;48.49;97490.03;5066293;28;20044;-40
2023/06/21 00:58:04;;;;;;;9.70;8.52;;;22.80;65.10;;;24.71;48.80;97501.66;5054461;28;20053;-40
2023/06/21 01:00:31;;;;;;;9.40;7.95;;;22.70;65.30;;;24.66;48.67;97503.50;5081399;28;20048;-40
2023/06/21 01:02:59;;;;;;;8.68;7.88;;;22.70;65.50;;;24.65;48.69;97496.44;5081817;28;20047;-39
2023/06/21 01:05:30;;;;;;;9.52;8.25;;;22.70;65.30;;;24.64;48.68;97501.06;5054580;28;20095;-39
2023/06/21 01:08:48;;;;;;;9.98;7.85;;;22.70;65.00;;;24.59;48.39;97497.44;5046796;28;20044;-39
2023/06/21 01:11:28;;;;;;;13.68;8.48;;;22.70;65.50;;;24.55;48.89;97495.22;5035096;28;20044;-40
2023/06/21 01:14:24;;;;;;;12.25;7.68;;;22.60;65.80;;;24.52;48.88;97501.19;5052505;28;20063;-40
2023/06/21 01:16:54;;;;;;;9.23;7.88;;;22.60;66.00;;;24.52;49.03;97506.63;5044199;28;20056;-40
2023/06/21 01:20:00;;;;;;;8.85;7.95;;;22.60;65.50;;;24.45;48.91;97514.13;5032509;28;20059;-40
2023/06/21 01:22:58;;;;;;;8.65;7.80;;;22.50;66.00;;;24.45;48.90;97513.31;5020322;28;20075;-40
2023/06/21 01:26:09;;;;;;;9.35;8.45;;;22.50;65.80;;;24.37;48.72;97509.16;5054639;28;20057;-41
2023/06/21 01:29:08;;;;;;;10.15;8.43;;;22.50;66.20;;;24.36;48.91;97512.94;5028004;28;20048;-40
2023/06/21 01:31:38;;;;;;;11.35;8.10;;;22.40;65.70;;;24.32;49.14;97518.03;5051727;28;20036;-40
2023/06/21 01:34:08;;;;;;;13.70;8.88;;;22.40;65.90;;;24.29;49.08;97515.84;5035841;28;20049;-39
2023/06/21 01:36:39;;;;;;;8.60;7.68;;;22.40;65.90;;;24.27;49.48;97522.59;5050518;28;20055;-40
2023/06/21 01:39:10;;;;;;;10.48;8.50;;;22.40;65.80;;;24.26;49.25;97512.81;5059477;28;20063;-40
2023/06/21 01:41:38;;;;;;;10.73;8.02;;;22.40;65.80;;;24.24;49.47;97515.78;5068773;28;20051;-40
2023/06/21 01:44:09;;;;;;;14.25;8.57;;;22.40;65.80;;;24.20;49.47;97522.78;5058578;28;20049;-40
2023/06/21 01:46:38;;;;;;;8.90;8.00;;;22.30;66.30;;;24.18;49.71;97519.50;5038138;28;20071;-40
2023/06/21 01:49:10;;;;;;;11.77;7.72;;;22.30;66.40;;;24.17;49.49;97526.84;5054902;28;20401;-40
2023/06/21 01:51:40;;;;;;;9.63;8.23;;;22.30;66.30;;;24.14;49.60;97534.69;5047038;28;20044;-40
2023/06/21 01:54:08;;;;;;;8.70;7.30;;;22.30;66.50;;;24.11;49.68;97533.28;5037803;28;20495;-40
2023/06/21 01:56:37;;;;;;;10.05;8.35;;;22.20;67.50;;;24.10;49.89;97533.53;5053417;28;20071;-40
2023/06/21 01:59:06;;;;;;;9.30;8.40;;;22.20;66.70;;;24.10;49.65;97538.97;5033450;28;20057;-40
2023/06/21 02:01:34;;;;;;;10.32;8.23;;;22.20;66.50;;;24.09;49.78;97545.47;5032806;28;20048;-39
2023/06/21 02:04:04;;;;;;;10.57;8.45;;;22.20;66.60;;;24.05;49.84;97553.31;5060818;28;20040;-40
2023/06/21 02:06:33;;;;;;;9.68;8.05;;;22.20;66.90;;;24.02;50.06;97551.13;5055827;28;20044;-39
2023/06/21 02:09:05;;;;;;;11.57;8.63;;;22.20;67.00;;;24.04;50.12;97553.56;5060051;28;20492;-40
2023/06/21 02:11:33;;;;;;;9.43;7.80;;;22.20;67.00;;;24.01;50.21;97557.59;5030929;28;20606;-40
2023/06/21 02:14:01;;;;;;;8.90;7.85;;;22.20;67.00;;;24.03;50.17;97560.09;5080305;28;20047;-40
2023/06/21 02:16:30;;;;;;;11.07;8.10;;;22.20;67.10;;;24.02;50.16;97566.56;5082908;28;20411;-40
2023/06/21 02:19:01;;;;;;;10.73;8.77;;;22.20;67.10;;;24.03;50.09;97566.34;5055081;28;20055;-40
2023/06/21 02:21:28;;;;;;;8.95;7.40;;;22.20;67.20;;;24.06;50.02;97563.13;5040304;28;20508;-40
2023/06/21 02:23:56;;;;;;;11.82;8.80;;;22.20;66.80;;;24.05;50.22;97563.38;5085198;28;20782;-40
2023/06/21 02:26:23;;;;;;;8.88;7.85;;;22.20;67.10;;;24.05;50.19;97561.47;5057712;28;20056;-40
2023/06/21 02:28:51;;;;;;;12.10;8.95;;;22.20;67.00;;;24.06;50.04;97565.84;5084817;28;20067;-40
2023/06/21 02:31:19;;;;;;;10.32;8.07;;;22.20;66.70;;;24.06;50.10;97560.41;5050272;28;20048;-40
2023/06/21 02:33:48;;;;;;;11.60;7.43;;;22.30;66.80;;;24.07;50.01;97563.94;5057853;28;20079;-40
2023/06/21 02:36:17;;;;;;;12.55;8.27;;;22.20;66.60;;;24.03;50.06;97560.91;5050626;28;20586;-40
2023/06/21 02:38:44;;;;;;;9.50;8.60;;;22.20;66.80;;;24.01;50.23;97571.19;5071952;28;20055;-40
2023/06/21 02:41:12;;;;;;;12.55;8.48;;;22.20;67.00;;;24.01;50.01;97579.34;5055116;28;20048;-40
2023/06/21 02:43:40;;;;;;;9.38;7.70;;;22.20;67.00;;;24.01;50.06;97579.34;5055413;28;20045;-40
2023/06/21 02:46:08;;;;;;;10.32;7.57;;;22.20;67.00;;;24.01;50.18;97579.34;5034791;28;20393;-40
2023/06/21 02:48:36;;;;;;;9.57;8.18;;;22.20;66.90;;;24.00;50.14;97577.72;5053830;28;20040;-40
2023/06/21 02:51:03;;;;;;;11.55;7.53;;;22.20;66.60;;;24.01;50.21;97570.38;5072622;28;20041;-40
2023/06/21 02:53:31;;;;;;;8.65;7.28;;;22.30;66.60;;;23.99;50.05;97570.63;5072970;28;20048;-40
2023/06/21 02:55:58;;;;;;;8.43;7.60;;;22.20;66.40;;;23.98;50.32;97574.41;5054212;28;20488;-40
2023/06/21 02:58:27;;;;;;;11.60;8.20;;;22.20;66.70;;;23.96;50.16;97574.69;5054232;28;20043;-39
2023/06/21 03:00:58;;;;;;;9.13;8.23;;;22.20;66.60;;;23.95;50.13;97583.91;5083738;28;20036;-39
2023/06/21 03:03:26;;;;;;;11.32;8.93;;;22.20;66.50;;;23.93;50.23;97593.38;5083295;28;20066;-40
2023/06/21 03:05:55;;;;;;;9.43;7.75;;;22.10;66.90;;;23.90;50.28;97599.31;5080727;28;20534;-40
2023/06/21 03:08:22;;;;;;;10.52;7.70;;;22.10;67.40;;;23.88;50.55;97601.44;5053625;28;20048;-40
2023/06/21 03:10:50;;;;;;;12.70;8.50;;;22.00;67.50;;;23.88;50.56;97607.69;5065487;28;20044;-40
2023/06/21 03:13:17;;;;;;;10.30;8.48;;;22.00;67.50;;;23.88;50.42;97601.44;5057339;28;20044;-40
2023/06/21 03:15:45;;;;;;;9.10;7.75;;;22.00;67.50;;;23.88;50.40;97610.41;5053701;28;20436;-40
2023/06/21 03:18:15;;;;;;;9.85;7.97;;;22.10;67.60;;;23.88;50.48;97606.88;5050308;28;20052;-40
2023/06/21 03:20:44;;;;;;;8.82;7.75;;;22.10;67.60;;;23.90;50.48;97621.06;5054024;28;20053;-40
2023/06/21 03:23:11;;;;;;;9.52;8.30;;;22.00;67.50;;;23.89;50.34;97625.66;5062137;28;20055;-40
2023/06/21 03:25:41;;;;;;;9.05;8.07;;;22.10;67.70;;;23.91;50.57;97620.00;5056695;28;20051;-40
2023/06/21 03:28:10;;;;;;;8.73;7.55;;;22.10;67.60;;;23.92;50.63;97636.06;5065484;28;20048;-40
2023/06/21 03:30:39;;;;;;;11.07;8.30;;;22.10;68.00;;;23.93;51.02;97658.63;5056972;28;20067;-40
2023/06/21 03:33:07;;;;;;;8.45;7.57;;;22.10;68.00;;;23.94;50.70;97685.56;5059361;28;20052;-40
2023/06/21 03:35:35;;;;;;;9.85;7.32;;;22.20;67.70;;;23.93;50.51;97741.00;5081892;28;20040;-40
2023/06/21 03:38:03;;;;;;;9.90;7.72;;;22.20;67.20;;;23.92;50.58;97809.22;5064789;28;20415;-40
2023/06/21 03:40:38;;;;;;;10.48;8.50;;;22.30;66.40;;;23.90;52.42;97836.63;5063150;28;20052;-40
2023/06/21 03:43:05;;;;;;;11.55;10.05;;;22.30;71.70;;;23.64;54.25;97824.41;5080267;28;20052;-40
2023/06/21 03:45:34;;;;;;;10.95;8.45;;;22.00;75.00;;;23.45;54.55;97763.16;5035045;28;20045;-40
2023/06/21 03:48:05;;;;;;;10.90;7.88;;;21.60;79.30;;;23.14;55.44;97741.63;5053128;28;20052;-40
2023/06/21 03:50:35;;;;;;;16.75;10.13;;;21.20;83.70;;;22.84;57.60;97776.22;5054778;28;20055;-39
2023/06/21 03:53:06;;;;;;;15.05;9.85;;;20.80;92.10;;;22.56;58.21;97759.59;5045451;28;20036;-39
2023/06/21 03:55:37;;;;;;;10.52;9.35;;;20.40;99.60;;;22.40;58.75;97747.56;5050060;28;20500;-40
2023/06/21 03:58:06;;;;;;;14.40;10.10;;;20.10;99.90;;;22.28;59.20;97752.16;5047021;28;20048;-40
2023/06/21 04:00:34;;;;;;;14.05;9.27;;;20.00;99.90;;;22.23;59.39;97739.25;5048753;28;20052;-40
2023/06/21 04:03:02;;;;;;;10.27;8.95;;;20.00;99.90;;;22.21;60.10;97740.56;5046520;28;20044;-40
2023/06/21 04:05:31;;;;;;;13.35;8.60;;;20.00;99.90;;;22.22;60.44;97739.50;5071161;28;20040;-40
2023/06/21 04:08:01;;;;;;;11.45;9.50;;;20.10;99.90;;;22.23;60.79;97708.59;5047446;28;20045;-40
2023/06/21 04:10:29;;;;;;;12.98;9.38;;;20.10;99.90;;;22.27;60.93;97715.25;5068510;28;20435;-40
2023/06/21 04:12:57;;;;;;;11.50;8.40;;;20.20;99.90;;;22.30;61.18;97700.41;5053874;28;20044;-40
2023/06/21 04:15:28;;;;;;;10.57;8.35;;;20.20;99.90;;;22.31;61.32;97685.78;5049467;28;20055;-40
2023/06/21 04:17:55;;;;;;;11.65;7.97;;;20.20;99.90;;;22.35;60.92;97676.09;5044203;28;20051;-40
2023/06/21 04:20:24;;;;;;;10.50;8.18;;;20.30;99.90;;;22.40;60.78;97668.91;5052479;28;20088;-41
2023/06/21 04:22:52;;;;;;;8.15;7.18;;;20.40;99.90;;;22.44;61.01;97688.25;5058181;28;20045;-40
2023/06/21 04:25:21;;;;;;;8.57;7.55;;;20.40;99.90;;;22.45;60.75;97679.06;5048549;28;20496;-40
2023/06/21 04:27:49;;;;;;;10.35;8.02;;;20.40;99.90;;;22.47;61.28;97682.38;5052592;28;20044;-40
2023/06/21 04:30:18;;;;;;;9.77;8.20;;;20.50;99.90;;;22.52;61.38;97679.75;5052881;28;20044;-40
2023/06/21 04:32:46;;;;;;;11.80;9.55;;;20.50;99.90;;;22.54;61.14;97676.81;5070959;28;20048;-40
2023/06/21 04:35:16;;;;;;;13.30;8.13;;;20.70;99.90;;;22.59;61.30;97685.88;5070955;28;20045;-39
2023/06/21 04:37:46;;;;;;;9.30;7.70;;;20.70;99.90;;;22.55;61.43;97700.16;5070238;28;20488;-40
2023/06/21 04:40:20;;;;;;;11.27;8.65;;;20.60;99.90;;;22.51;62.03;97696.28;5071058;28;20043;-40
2023/06/21 04:42:54;;;;;;;14.52;8.75;;;20.50;99.90;;;22.49;61.83;97703.81;5070883;28;20052;-40
2023/06/21 04:45:25;;;;;;;9.88;8.10;;;20.40;99.90;;;22.43;62.14;97711.03;5070950;28;20052;-40
2023/06/21 04:47:57;;;;;;;10.77;6.93;;;20.40;99.90;;;22.40;61.60;97704.16;5073853;28;20036;-40
2023/06/21 04:50:26;;;;;;;9.90;6.40;;;20.30;99.90;;;22.39;61.41;97707.94;5082664;28;20037;-40
2023/06/21 04:52:58;;;;;;;9.60;6.75;;;20.40;99.90;;;22.43;61.22;97724.59;5056552;28;20285;-40
2023/06/21 04:55:27;;;;;;;10.77;6.13;;;20.40;99.90;;;22.44;61.40;97712.66;5082729;28;20450;-40
2023/06/21 04:57:56;;;;;;;10.25;6.80;;;20.40;99.90;;;22.46;61.37;97715.13;5066754;28;20127;-40
2023/06/21 05:00:24;;;;;;;9.43;6.90;;;20.40;99.90;;;22.51;61.28;97707.94;5082673;28;20044;-40
2023/06/21 05:02:52;;;;;;;9.45;7.40;;;20.60;99.90;;;22.53;61.54;97713.16;5083441;28;20500;-40
2023/06/21 05:05:19;;;;;;;9.93;6.78;;;20.60;99.90;;;22.56;61.36;97721.59;5083171;28;20045;-40
2023/06/21 05:07:47;;;;;;;7.93;6.65;;;20.60;99.90;;;22.57;61.23;97727.88;5059128;28;20041;-40
2023/06/21 05:10:14;;;;;;;11.05;7.18;;;20.60;99.90;;;22.58;61.50;97727.63;5086643;28;20032;-39
2023/06/21 05:12:42;;;;;;;13.07;8.15;;;20.60;99.90;;;22.57;61.41;97728.69;5084736;28;20055;-39
2023/06/21 05:15:10;;;;;;;9.85;7.30;;;20.60;99.90;;;22.55;61.85;97733.53;5083013;28;20037;-40
2023/06/21 05:17:37;;;;;;;10.70;8.30;;;20.60;99.90;;;22.56;62.36;97737.88;5083425;28;20049;-40
2023/06/21 05:20:08;;;;;;;11.35;8.20;;;20.60;99.90;;;22.55;62.52;97735.44;5085830;28;20048;-40
2023/06/21 05:22:37;;;;;;;14.40;8.43;;;20.50;99.90;;;22.54;62.60;97731.06;5085840;28;20419;-40
2023/06/21 05:25:05;;;;;;;10.80;8.82;;;20.50;99.90;;;22.55;62.38;97727.28;5082883;28;20115;-39
2023/06/21 05:27:33;;;;;;;14.40;9.15;;;20.60;99.90;;;22.54;62.10;97736.47;5040006;28;20408;-39
2023/06/21 05:30:00;;;;;;;10.68;9.57;;;20.50;99.90;;;22.53;62.34;97745.69;5060128;28;20045;-40
2023/06/21 05:32:28;;;;;;;12.30;9.60;;;20.50;99.90;;;22.53;62.48;97748.41;5070336;28;20052;-39
2023/06/21 05:34:56;;;;;;;12.52;8.43;;;20.60;99.90;;;22.53;62.28;97746.50;5085708;28;20063;-39
2023/06/21 05:37:24;;;;;;;11.45;9.18;;;20.50;99.90;;;22.54;62.47;97748.16;5060690;28;20440;-39
2023/06/21 05:39:51;;;;;;;12.50;9.60;;;20.60;99.90;;;22.58;62.75;97753.94;5085533;28;20123;-41
2023/06/21 05:42:19;;;;;;;12.70;10.18;;;20.60;99.90;;;22.57;62.99;97755.84;5086047;28;20043;-41
2023/06/21 05:44:46;;;;;;;11.82;9.30;;;20.60;99.90;;;22.60;63.08;97755.38;5084097;28;20047;-40
2023/06/21 05:47:14;;;;;;;13.27;8.27;;;20.70;99.90;;;22.63;62.63;97742.41;5082059;28;20048;-40
2023/06/21 05:49:43;;;;;;;16.13;9.13;;;20.80;99.90;;;22.69;62.88;97717.03;5083495;28;20420;-40
2023/06/21 05:52:10;;;;;;;11.50;10.30;;;20.90;99.90;;;22.76;63.06;97706.84;5062252;28;20040;-41
2023/06/21 05:54:41;;;;;;;12.63;9.27;;;21.10;99.90;;;22.79;62.72;97718.06;5082740;28;20040;-41
2023/06/21 05:57:09;;;;;;;13.93;9.85;;;21.10;99.90;;;22.86;62.34;97744.28;5083434;28;20515;-41
2023/06/21 05:59:38;;;;;;;13.23;9.65;;;21.30;99.90;;;22.88;62.31;97737.53;5056287;28;20049;-40
2023/06/21 06:02:06;;;;;;;10.60;8.55;;;21.20;99.90;;;22.97;62.43;97727.13;5084846;28;20040;-40
2023/06/21 06:04:34;;;;;;;13.88;10.18;;;21.30;99.90;;;23.06;62.36;97743.91;5085644;28;20495;-40
2023/06/21 06:07:02;;;;;;;13.23;9.98;;;21.40;99.90;;;23.11;62.26;97747.56;5047394;28;20048;-40
2023/06/21 06:09:30;;;;;;;14.95;9.25;;;21.50;99.90;;;23.21;61.78;97752.38;5073001;28;20036;-40
2023/06/21 06:11:57;;;;;;;10.35;9.13;;;21.60;99.90;;;23.27;61.78;97748.69;5073667;28;20041;-39
2023/06/21 06:14:26;;;;;;;11.45;9.05;;;21.60;99.90;;;23.34;61.75;97751.25;5073192;28;20056;-40
2023/06/21 06:16:53;;;;;;;10.32;8.45;;;21.80;99.90;;;23.42;61.94;97745.47;5073317;28;20079;-40
2023/06/21 06:19:21;;;;;;;10.07;8.70;;;22.00;99.90;;;23.49;61.27;97742.59;5073616;28;20044;-41
2023/06/21 06:21:48;;;;;;;11.95;8.73;;;22.00;99.90;;;23.57;61.82;97745.78;5081795;28;20044;-40
2023/06/21 06:24:16;;;;;;;12.02;7.65;;;22.10;99.90;;;23.64;61.15;97751.03;5081964;28;20040;-40
2023/06/21 06:26:44;;;;;;;9.73;8.77;;;22.20;99.90;;;23.71;60.69;97745.44;5082447;28;20044;-39
2023/06/21 06:29:12;;;;;;;11.45;7.88;;;22.20;99.90;;;23.76;60.38;97754.53;5084746;28;20039;-39
2023/06/21 06:31:39;;;;;;;9.38;6.97;;;22.30;99.90;;;23.83;60.78;97750.88;5084489;28;20422;-40
2023/06/21 06:34:07;;;;;;;10.93;7.57;;;22.30;99.90;;;23.88;60.71;97742.81;5055430;28;20048;-40
2023/06/21 06:36:35;;;;;;;9.40;7.25;;;22.30;99.90;;;23.94;59.72;97744.53;5081136;28;20063;-40
2023/06/21 06:39:02;;;;;;;9.35;7.03;;;22.30;99.90;;;23.98;59.75;97748.41;5083975;28;20055;-40
2023/06/21 06:41:30;;;;;;;16.42;8.52;;;22.40;99.90;;;24.05;60.00;97759.97;5081107;28;20049;-40
2023/06/21 06:44:04;;;;;;;9.30;6.13;;;22.60;99.90;;;24.08;59.58;97766.78;5030797;28;20056;-40
2023/06/21 06:46:32;;;;;;;7.13;5.95;;;22.50;99.90;;;24.12;59.23;97765.25;5076571;28;20036;-40
2023/06/21 06:48:59;;;;;;;6.80;5.82;;;22.50;99.90;;;24.14;58.41;97768.56;5072543;28;20052;-40
2023/06/21 06:51:27;;;;;;;8.82;5.60;;;22.60;99.90;;;24.17;58.01;97776.22;5079589;28;20036;-40
2023/06/21 06:53:54;;;;;;;7.43;5.55;;;22.60;99.90;;;24.25;57.77;97772.25;5082506;28;20404;-40
2023/06/21 06:56:22;;;;;;;7.18;6.15;;;22.70;99.90;;;24.26;58.36;97766.59;5080888;28;20040;-40
2023/06/21 06:58:50;;;;;;;5.80;5.05;;;22.70;99.90;;;24.33;57.77;97775.41;5055943;28;20056;-40
2023/06/21 07:01:17;;;;;;;7.78;5.80;;;22.80;99.90;;;24.37;57.64;97779.28;5083386;28;20395;-40
2023/06/21 07:03:45;;;;;;;9.90;5.82;;;22.80;99.80;;;24.43;57.58;97773.91;5078670;28;20052;-40
2023/06/21 07:06:13;;;;;;;7.95;6.25;;;22.80;99.30;;;24.46;57.40;97770.69;5075934;28;20066;-40
2023/06/21 07:08:44;;;;;;;10.43;6.75;;;22.90;99.50;;;24.49;56.90;97773.75;5083918;28;20055;-40
2023/06/21 07:11:12;;;;;;;8.65;6.38;;;22.90;99.20;;;24.47;57.27;97773.19;5047026;28;20127;-40
2023/06/21 07:13:40;;;;;;;8.02;6.00;;;22.90;97.70;;;24.49;57.19;97770.22;5079658;28;20059;-41
2023/06/21 07:16:08;;;;;;;8.13;6.22;;;22.90;99.90;;;24.56;57.22;97766.28;5054448;28;20036;-41
2023/06/21 07:18:35;;;;;;;8.25;5.82;;;23.00;99.50;;;24.62;56.97;97761.75;5079319;28;20407;-41
2023/06/21 07:21:03;;;;;;;7.55;6.40;;;23.10;98.60;;;24.68;56.90;97766.19;5080168;28;20059;-41
2023/06/21 07:23:31;;;;;;;8.77;6.18;;;23.10;98.30;;;24.72;56.81;97767.34;5080295;28;20043;-41
2023/06/21 07:25:58;;;;;;;7.85;5.72;;;23.20;98.20;;;24.77;56.64;97778.28;5082518;28;20077;-41
2023/06/21 07:28:52;;;;;;;7.30;5.22;;;23.40;97.10;;;24.77;56.24;97778.28;5083052;28;20047;-41
2023/06/21 07:31:20;;;;;;;;;;;23.40;95.10;;;24.88;56.30;97778.47;5070754;28;20051;-41
2023/06/21 07:33:49;;;;;;;5.95;4.80;;;23.50;93.60;;;24.98;55.96;97783.22;5083012;28;20275;-41
2023/06/21 07:36:16;;;;;;;7.78;5.57;;;23.50;95.10;;;25.02;55.37;97782.47;5080177;28;20392;-41
2023/06/21 07:38:46;;;;;;;7.90;5.93;;;23.60;92.20;;;25.07;55.28;97776.28;5080289;28;20087;-41
2023/06/21 07:41:15;;;;;;;6.35;5.13;;;23.70;92.90;;;25.15;54.95;97778.56;5064382;28;20056;-40
2023/06/21 07:43:42;;;;;;;6.85;4.13;;;23.80;91.40;;;25.03;53.41;97775.94;5070631;28;20049;-40
2023/06/21 07:46:10;;;;;;;8.98;5.25;;;23.80;86.60;;;25.05;53.43;97770.25;5079643;28;20044;-41
2023/06/21 07:48:42;;;;;;;6.35;5.03;;;23.80;86.40;;;25.10;53.73;97765.69;5079374;28;20550;-41
2023/06/21 07:51:10;;;;;;;6.15;4.88;;;23.80;87.40;;;25.13;53.52;97753.47;5079874;28;20051;-41
2023/06/21 07:53:37;;;;;;;5.60;3.92;;;23.80;87.30;;;25.14;53.01;97753.22;5079904;28;20045;-41
2023/06/21 07:56:05;;;;;;;4.18;3.47;;;23.80;85.40;;;24.98;52.12;97753.28;5063416;28;20041;-41
2023/06/21 07:58:34;;;;;;;4.30;3.60;;;23.70;81.50;;;25.05;51.73;97765.63;5070049;28;20037;-41
2023/06/21 08:01:01;;;;;;;4.65;3.42;;;23.60;80.20;;;25.01;51.51;97771.81;5076799;28;20049;-41
2023/06/21 08:03:29;;;;;;;5.07;4.43;;;23.60;81.80;;;25.06;51.96;97769.16;5083206;28;20510;-41
2023/06/21 08:05:56;;;;;;;5.85;4.00;;;23.60;83.00;;;24.88;51.78;97786.63;5081460;28;20054;-41
2023/06/21 08:08:24;;;;;;;6.65;4.63;;;23.50;82.40;;;24.99;52.70;97793.88;5079240;28;20048;-41
2023/06/21 08:10:52;;;;;;;6.28;4.63;;;23.60;84.40;;;25.00;52.94;97808.31;5053262;28;20051;-41
2023/06/21 08:13:22;;;;;;;5.32;4.35;;;23.70;84.20;;;25.14;53.28;97809.59;5061175;28;20048;-41
2023/06/21 08:15:53;;;;;;;5.72;4.18;;;23.90;85.80;;;25.07;54.24;97814.41;5080095;28;20052;-41
2023/06/21 08:18:21;;;;;;;5.78;4.63;;;23.90;86.10;;;25.04;54.59;97813.00;5082875;28;20048;-41
2023/06/21 08:20:49;;;;;;;5.55;4.60;;;23.80;87.00;;;25.01;54.21;97821.69;5082801;28;20130;-42
2023/06/21 08:23:16;;;;;;;7.57;4.28;;;23.80;86.60;;;25.10;54.34;97816.63;5070807;28;20041;-42
2023/06/21 08:25:45;;;;;;;5.20;4.07;;;23.80;87.20;;;25.12;54.29;97822.63;5071230;28;20522;-41
2023/06/21 08:28:13;;;;;;;5.85;4.80;;;23.80;86.30;;;25.14;53.94;97829.50;5082246;28;20036;-41
2023/06/21 08:30:40;;;;;;;7.78;4.65;;;23.90;85.50;;;25.05;54.65;97822.81;5082936;28;20048;-41
2023/06/21 08:33:09;;;;;;;4.68;3.80;;;23.90;86.50;;;25.08;54.58;97832.38;5055745;28;20053;-42
2023/06/21 08:35:40;;;;;;;6.22;4.15;;;23.80;87.10;;;25.26;54.22;97836.75;5083121;28;20036;-42
2023/06/21 08:38:08;;;;;;;6.18;4.20;;;23.90;86.50;;;25.28;53.28;97832.72;5055515;28;20059;-41
2023/06/21 08:41:01;;;;;;;7.35;3.72;;;24.00;83.40;;;25.25;53.71;97835.09;5059339;28;20045;-42
2023/06/21 08:43:29;;;;;;;4.15;3.50;;;23.90;85.00;;;25.13;53.40;97843.34;5082876;28;20040;-42
2023/06/21 08:45:57;;;;;;;10.57;3.90;;;23.80;83.80;;;25.09;53.07;97832.13;5082017;28;20052;-41
2023/06/21 08:48:32;;;;;;;7.40;3.70;;;23.70;83.30;;;25.10;53.27;97836.50;5078749;28;20040;-40
2023/06/21 08:51:03;;;;;;;5.38;3.35;;;23.60;83.90;;;24.90;53.07;97836.22;5080612;28;20081;-40
2023/06/21 08:53:46;;;;;;;4.43;3.45;;;23.40;82.60;;;24.93;52.73;97842.00;5060151;28;20057;-41
2023/06/21 08:56:24;;;;;;;4.70;3.08;;;23.40;81.90;;;24.70;53.29;97834.81;5056456;28;20036;-40
2023/06/21 08:59:08;;;;;;;5.38;3.05;;;23.30;83.20;;;24.81;52.81;97832.25;5082099;28;20055;-41
2023/06/21 09:01:50;;;;;;;5.55;3.85;;;23.20;84.40;;;24.65;54.59;97839.34;5052816;28;20465;-40
2023/06/21 09:04:23;;;;;;;6.65;4.13;;;23.10;87.70;;;24.60;55.00;97841.97;5079399;28;20048;-41
2023/06/21 09:06:54;;;;;;;7.65;3.92;;;23.00;89.30;;;24.35;55.69;97843.19;5078002;28;20055;-40
2023/06/21 09:09:24;;;;;;;7.45;3.50;;;22.80;90.60;;;24.43;56.27;97840.06;5082313;28;20392;-40
2023/06/21 09:11:53;;;;;;;6.63;4.70;;;22.80;94.80;;;24.29;56.30;97835.97;5082796;28;20048;-40
2023/06/21 09:14:21;;;;;;;13.07;4.38;;;22.60;94.00;;;24.26;57.43;97837.31;5052734;28;20048;-40
2023/06/21 09:16:49;;;;;;;6.03;4.13;;;22.50;97.60;;;24.20;57.84;97815.72;5055459;28;20044;-48
2023/06/21 09:19:16;;;;;;;5.55;3.75;;;22.40;99.30;;;24.25;58.17;97815.78;5044519;28;20400;-50
2023/06/21 09:21:45;;;;;;;7.55;4.10;;;22.40;99.90;;;24.24;58.32;97809.53;5078279;28;20055;-46
2023/06/21 09:24:12;;;;;;;4.07;3.55;;;22.40;99.90;;;24.27;58.31;97787.28;5081362;28;20429;-50
2023/06/21 09:26:40;;;;;;;5.43;4.47;;;22.40;99.90;;;24.26;58.49;97791.06;5082046;28;20044;-46
2023/06/21 09:29:08;;;;;;;8.05;4.65;;;22.50;99.90;;;24.18;59.15;97792.28;5055891;28;20044;-49
2023/06/21 09:31:36;;;;;;;5.90;4.25;;;22.30;99.90;;;24.14;59.48;97799.28;5082053;28;20039;-50
2023/06/21 09:34:03;;;;;;;6.38;4.00;;;22.30;99.90;;;24.13;59.20;97804.97;5053831;28;20044;-48
2023/06/21 09:36:31;;;;;;;5.57;4.05;;;22.30;99.90;;;24.08;59.49;97794.00;5078666;28;20053;-47
2023/06/21 09:39:10;;;;;;;5.45;3.90;;;22.20;99.90;;;24.08;59.67;97803.00;5053610;28;20524;-47
2023/06/21 09:41:39;;;;;;;6.20;4.32;;;22.30;99.90;;;24.10;59.97;97809.00;5082674;28;20048;-47
2023/06/21 09:44:06;;;;;;;6.55;5.05;;;22.30;99.90;;;24.11;59.87;97810.66;5082322;28;20048;-46
2023/06/21 09:46:34;;;;;;;6.25;4.60;;;22.30;99.90;;;24.06;59.85;97793.41;5083145;28;20037;-47
2023/06/21 09:49:07;;;;;;;5.35;4.18;;;22.30;99.90;;;24.05;59.91;97797.22;5083184;28;20045;-49
2023/06/21 09:51:44;;;;;;;7.97;4.45;;;22.30;99.90;;;24.00;60.14;97784.38;5085800;28;20047;-46
2023/06/21 09:54:12;;;;;;;6.57;4.90;;;22.30;99.90;;;23.92;60.73;97784.75;5083734;28;20415;-47
2023/06/21 09:56:40;;;;;;;6.13;4.40;;;22.20;99.90;;;23.89;60.64;97807.81;5082127;28;20052;-50
2023/06/21 09:59:19;;;;;;;7.03;4.65;;;22.10;99.90;;;23.84;60.78;97826.72;5056676;28;20531;-45
2023/06/21 10:01:49;;;;;;;6.20;4.97;;;22.00;99.90;;;23.82;61.02;97852.50;5085664;28;20044;-45
2023/06/21 10:04:18;;;;;;;8.07;5.57;;;22.00;99.90;;;23.73;61.53;97861.03;5059456;28;20116;-45
2023/06/21 10:06:54;;;;;;;6.97;5.43;;;21.80;99.90;;;23.70;61.33;97866.09;5084642;28;20500;-48
2023/06/21 10:09:22;;;;;;;6.10;5.40;;;21.80;99.90;;;23.68;60.96;97869.06;5055465;28;20048;-45
2023/06/21 10:11:54;;;;;;;8.98;4.88;;;21.80;99.90;;;23.66;61.75;97876.63;5055405;28;20527;-47
2023/06/21 10:14:29;;;;;;;9.25;5.03;;;21.80;99.90;;;23.65;61.98;97885.00;5072062;28;20051;-49
2023/06/21 10:16:57;;;;;;;9.07;5.05;;;21.80;99.90;;;23.63;62.02;97881.72;5082317;28;20044;-47
2023/06/21 10:19:30;;;;;;;11.43;5.68;;;21.70;99.90;;;23.59;61.82;97876.78;5047796;28;20515;-47
2023/06/21 10:22:05;;;;;;;6.50;5.07;;;21.70;99.90;;;23.57;62.58;97873.47;5082014;28;20040;-48
2023/06/21 10:24:50;;;;;;;7.80;5.40;;;21.70;99.90;;;23.54;62.40;97873.13;5082254;28;20500;-49
2023/06/21 10:27:20;;;;;;;5.65;4.65;;;21.70;99.90;;;23.53;62.73;97866.84;5084439;28;20055;-46